Time;durP1;ratioP1;P1;durP2;ratioP2;P2;SDS_P1;SDS_P2;PMS_P1;PMS_P2;Temp;Humidity;BMP_temperature;BMP_pressure;BME280_temperature;BME280_humidity;BME280_pressure;Samples;Min_cycle;Max_cycle;Signal;HPM_P1;HPM_P2
2021/03/25 00:01:19;;;;;;;12.73;8.75;;;5.00;67.30;;;;;;4927791;29;20238;-82
2021/03/25 00:03:48;;;;;;;14.63;8.93;;;4.90;67.60;;;;;;4924874;29;20239;-82
2021/03/25 00:06:15;;;;;;;12.35;8.60;;;4.90;68.30;;;;;;4926662;29;20254;-82
2021/03/25 00:08:41;;;;;;;9.75;7.85;;;4.90;68.60;;;;;;4928177;29;20246;-82
2021/03/25 00:11:08;;;;;;;9.98;7.95;;;4.90;68.60;;;;;;4929063;29;20213;-82
2021/03/25 00:13:35;;;;;;;11.63;8.40;;;4.90;68.60;;;;;;4927382;29;20226;-81
2021/03/25 00:16:03;;;;;;;11.95;8.40;;;4.90;68.60;;;;;;4927966;29;20262;-81
2021/03/25 00:18:30;;;;;;;12.52;8.05;;;4.90;68.80;;;;;;4929098;29;20220;-82
2021/03/25 00:20:57;;;;;;;12.35;8.75;;;4.80;68.60;;;;;;4929237;29;20215;-81
2021/03/25 00:23:23;;;;;;;13.55;8.82;;;4.80;68.80;;;;;;4926544;29;20223;-81
2021/03/25 00:25:50;;;;;;;12.73;8.60;;;4.90;69.30;;;;;;4931359;29;20243;-81
2021/03/25 00:28:17;;;;;;;11.40;8.63;;;4.80;68.50;;;;;;4928344;29;20239;-81
2021/03/25 00:30:46;;;;;;;11.85;8.30;;;4.90;69.30;;;;;;4928457;29;20254;-80
2021/03/25 00:33:15;;;;;;;10.32;8.20;;;4.80;69.20;;;;;;4928139;29;20226;-83
2021/03/25 00:35:43;;;;;;;13.65;8.68;;;4.80;68.50;;;;;;4931320;29;20234;-83
2021/03/25 00:38:10;;;;;;;11.18;8.00;;;4.70;68.90;;;;;;4930923;29;20254;-83
2021/03/25 00:40:37;;;;;;;16.85;8.98;;;4.70;69.40;;;;;;4929623;29;20616;-83
2021/03/25 00:43:06;;;;;;;10.75;8.30;;;4.60;69.20;;;;;;4929033;29;20215;-81
2021/03/25 00:45:34;;;;;;;11.02;7.78;;;4.60;69.30;;;;;;4928277;29;20230;-82
2021/03/25 00:48:02;;;;;;;13.75;9.25;;;4.50;69.90;;;;;;4929396;29;20279;-82
2021/03/25 00:50:30;;;;;;;12.80;9.60;;;4.50;70.90;;;;;;4929985;29;20238;-81
2021/03/25 00:52:57;;;;;;;8.90;7.50;;;4.50;71.10;;;;;;4927041;29;20263;-81
2021/03/25 00:55:25;;;;;;;11.20;8.70;;;4.40;71.20;;;;;;4930279;29;20273;-82
2021/03/25 00:57:51;;;;;;;11.57;7.88;;;4.50;72.20;;;;;;4929869;29;20298;-80
2021/03/25 01:00:21;;;;;;;12.73;8.15;;;4.50;71.60;;;;;;4931738;29;20227;-81
2021/03/25 01:02:47;;;;;;;10.02;7.93;;;4.50;71.20;;;;;;4931300;29;20215;-81
2021/03/25 01:05:15;;;;;;;10.82;8.15;;;4.50;71.70;;;;;;4930048;29;20251;-82
2021/03/25 01:07:42;;;;;;;13.65;8.23;;;4.50;71.90;;;;;;4929282;29;20207;-82
2021/03/25 01:10:15;;;;;;;9.48;7.72;;;4.40;72.50;;;;;;4931084;29;20633;-81
2021/03/25 01:12:41;;;;;;;7.88;7.07;;;4.50;72.20;;;;;;4930890;29;20234;-81
2021/03/25 01:15:09;;;;;;;10.65;7.80;;;4.40;71.70;;;;;;4929318;29;20214;-81
2021/03/25 01:17:39;;;;;;;9.68;6.45;;;4.40;72.40;;;;;;4934473;29;20207;-82
2021/03/25 01:20:13;;;;;;;9.15;6.75;;;4.40;72.50;;;;;;4935080;29;20259;-81
2021/03/25 01:22:41;;;;;;;9.45;6.82;;;4.40;71.50;;;;;;4928133;29;20271;-81
2021/03/25 01:25:08;;;;;;;10.25;7.25;;;4.40;71.40;;;;;;4927780;29;20199;-81
2021/03/25 01:27:35;;;;;;;9.48;7.13;;;4.30;71.20;;;;;;4926545;29;20207;-81
2021/03/25 01:30:02;;;;;;;12.55;7.20;;;4.30;71.30;;;;;;4925783;29;20273;-81
2021/03/25 01:32:29;;;;;;;8.25;6.90;;;4.30;71.00;;;;;;4926020;29;20239;-81
2021/03/25 01:34:55;;;;;;;14.30;7.50;;;4.30;70.50;;;;;;4931865;29;20227;-81
2021/03/25 01:37:22;;;;;;;11.60;8.13;;;4.20;70.30;;;;;;4936049;29;20254;-81
2021/03/25 01:39:51;;;;;;;11.98;8.45;;;4.20;70.70;;;;;;4924253;29;20243;-81
2021/03/25 01:42:21;;;;;;;10.40;7.75;;;4.20;70.50;;;;;;4927962;29;20769;-81
2021/03/25 01:44:47;;;;;;;12.80;8.85;;;4.20;70.70;;;;;;4925543;29;20337;-82
2021/03/25 01:47:14;;;;;;;13.63;8.98;;;4.30;70.80;;;;;;4925605;29;20266;-81
2021/03/25 01:49:40;;;;;;;10.82;8.90;;;4.30;70.10;;;;;;4925082;29;20243;-81
2021/03/25 01:52:22;;;;;;;14.50;9.10;;;4.30;69.90;;;;;;4923463;29;20274;-80
2021/03/25 01:55:37;;;;;;;10.07;7.88;;;4.30;69.50;;;;;;4924606;29;20244;-81
2021/03/25 01:58:29;;;;;;;9.63;7.32;;;4.30;69.10;;;;;;4896834;29;20271;-82
2021/03/25 02:01:03;;;;;;;8.38;7.32;;;4.20;69.40;;;;;;4938314;29;20199;-82
2021/03/25 02:04:12;;;;;;;9.65;7.43;;;4.10;69.10;;;;;;4929467;29;20347;-81
2021/03/25 02:06:45;;;;;;;12.88;8.38;;;4.10;69.40;;;;;;4917251;29;20468;-80
2021/03/25 02:09:24;;;;;;;8.77;7.18;;;4.00;69.60;;;;;;4924969;29;20215;-80
2021/03/25 02:12:01;;;;;;;11.90;8.35;;;4.00;70.00;;;;;;4926077;29;20214;-80
2021/03/25 02:14:34;;;;;;;13.50;9.27;;;4.00;70.00;;;;;;4927849;29;20188;-81
2021/03/25 02:17:07;;;;;;;10.55;8.70;;;4.00;70.70;;;;;;4923285;29;20326;-80
2021/03/25 02:20:24;;;;;;;10.02;7.55;;;4.00;70.40;;;;;;4926524;29;20203;-80
2021/03/25 02:23:11;;;;;;;9.38;7.55;;;4.00;70.70;;;;;;4898660;29;20215;-82
2021/03/25 02:25:41;;;;;;;8.95;7.10;;;3.90;70.60;;;;;;4922337;29;20250;-81
2021/03/25 02:28:21;;;;;;;10.75;7.88;;;3.90;71.20;;;;;;4922429;29;20211;-81
2021/03/25 02:30:59;;;;;;;12.15;8.20;;;3.80;71.30;;;;;;4923087;29;20237;-80
2021/03/25 02:33:26;;;;;;;12.48;7.47;;;3.80;71.50;;;;;;4925426;29;20215;-80
2021/03/25 02:35:56;;;;;;;9.82;7.57;;;3.80;71.30;;;;;;4922943;29;20630;-80
2021/03/25 02:38:27;;;;;;;11.05;6.72;;;3.80;72.00;;;;;;4930594;29;20243;-81
2021/03/25 02:40:57;;;;;;;9.93;6.30;;;3.80;72.00;;;;;;4923478;29;20207;-81
2021/03/25 02:43:29;;;;;;;12.52;7.53;;;3.80;72.00;;;;;;4925541;29;20268;-82
2021/03/25 02:46:01;;;;;;;9.15;6.22;;;3.80;70.90;;;;;;4927918;29;20228;-82
2021/03/25 02:48:30;;;;;;;13.27;7.40;;;3.80;71.00;;;;;;4928253;29;20287;-81
2021/03/25 02:51:00;;;;;;;7.60;6.22;;;3.80;71.70;;;;;;4924487;29;20246;-82
2021/03/25 02:53:36;;;;;;;10.45;6.20;;;3.80;70.60;;;;;;4923614;29;20703;-81
2021/03/25 02:56:09;;;;;;;9.80;6.53;;;3.80;70.20;;;;;;4922784;29;20334;-82
2021/03/25 02:58:39;;;;;;;9.70;5.72;;;3.80;70.60;;;;;;4923529;29;20214;-82
2021/03/25 03:01:10;;;;;;;8.48;6.65;;;3.70;71.00;;;;;;4924232;29;20574;-82
2021/03/25 03:03:41;;;;;;;8.30;6.10;;;3.70;71.00;;;;;;4930179;29;20243;-83
2021/03/25 03:06:15;;;;;;;7.05;6.32;;;3.80;71.00;;;;;;4938985;29;20226;-83
2021/03/25 03:08:45;;;;;;;8.15;6.75;;;3.70;70.90;;;;;;4938571;29;20179;-83
2021/03/25 03:11:16;;;;;;;10.60;6.57;;;3.70;71.50;;;;;;4938724;29;20195;-81
2021/03/25 03:13:47;;;;;;;8.75;6.20;;;3.70;71.90;;;;;;4938511;29;20219;-83
2021/03/25 03:16:18;;;;;;;8.57;6.32;;;3.70;71.90;;;;;;4935045;29;20267;-82
2021/03/25 03:18:49;;;;;;;8.85;6.70;;;3.70;71.90;;;;;;4928977;29;20207;-82
2021/03/25 03:21:20;;;;;;;6.90;5.95;;;3.60;71.80;;;;;;4929351;29;20238;-82
2021/03/25 03:23:47;;;;;;;9.07;6.18;;;3.50;71.70;;;;;;4928731;29;20223;-83
2021/03/25 03:26:18;;;;;;;9.00;6.22;;;3.50;71.70;;;;;;4929483;29;20238;-81
2021/03/25 03:28:47;;;;;;;8.10;6.13;;;3.40;71.60;;;;;;4928967;29;20195;-81
2021/03/25 03:31:21;;;;;;;9.35;6.30;;;3.40;71.60;;;;;;4927636;29;20235;-81
2021/03/25 03:33:51;;;;;;;8.77;6.20;;;3.40;71.60;;;;;;4935509;29;20199;-84
2021/03/25 03:36:19;;;;;;;9.00;6.10;;;3.30;71.60;;;;;;4936886;29;20227;-82
2021/03/25 03:38:49;;;;;;;11.55;7.05;;;3.40;71.60;;;;;;4924084;29;20286;-82
2021/03/25 03:41:19;;;;;;;8.73;6.05;;;3.30;71.60;;;;;;4920295;29;20246;-82
2021/03/25 03:43:47;;;;;;;7.35;5.70;;;3.30;71.60;;;;;;4918468;29;20687;-82
2021/03/25 03:46:19;;;;;;;9.10;6.25;;;3.30;71.60;;;;;;4925651;29;20594;-81
2021/03/25 03:48:50;;;;;;;10.85;6.28;;;3.30;72.20;;;;;;4922934;29;20251;-81
2021/03/25 03:51:24;;;;;;;7.93;5.95;;;3.30;72.30;;;;;;4921933;29;20624;-82
2021/03/25 03:53:51;;;;;;;9.30;6.65;;;3.30;72.40;;;;;;4924126;29;20267;-81
2021/03/25 03:56:28;;;;;;;7.90;6.43;;;3.20;71.80;;;;;;4923236;29;20270;-81
2021/03/25 03:58:58;;;;;;;9.80;5.70;;;3.10;72.40;;;;;;4923072;29;20195;-82
2021/03/25 04:01:33;;;;;;;8.60;6.63;;;3.10;72.80;;;;;;4922762;29;20235;-80
2021/03/25 04:04:02;;;;;;;9.98;6.30;;;3.10;73.00;;;;;;4924120;29;20207;-80
2021/03/25 04:06:33;;;;;;;9.15;6.53;;;3.10;73.10;;;;;;4926943;29;20235;-80
2021/03/25 04:09:05;;;;;;;7.70;5.50;;;3.20;73.10;;;;;;4923742;29;20722;-81
2021/03/25 04:11:37;;;;;;;6.55;5.43;;;3.20;72.90;;;;;;4923697;29;20231;-80
2021/03/25 04:14:07;;;;;;;8.70;6.13;;;3.20;72.20;;;;;;4924980;29;20247;-81
2021/03/25 04:16:37;;;;;;;10.13;7.22;;;3.20;71.90;;;;;;4939432;29;20231;-83
2021/03/25 04:19:09;;;;;;;12.18;6.63;;;3.20;72.20;;;;;;4940771;29;20214;-82
2021/03/25 04:21:40;;;;;;;7.35;5.75;;;3.30;71.60;;;;;;4938040;29;20755;-81
2021/03/25 04:24:11;;;;;;;7.57;5.88;;;3.30;71.60;;;;;;4935485;29;20282;-80
2021/03/25 04:26:43;;;;;;;8.88;6.00;;;3.30;71.40;;;;;;4941045;29;20222;-81
2021/03/25 04:29:14;;;;;;;7.13;5.88;;;3.10;71.40;;;;;;4939229;29;20196;-80
2021/03/25 04:31:42;;;;;;;12.05;6.30;;;3.10;71.40;;;;;;4931540;29;20668;-81
2021/03/25 04:34:08;;;;;;;9.93;5.50;;;3.20;71.50;;;;;;4938960;29;20208;-81
2021/03/25 04:36:40;;;;;;;6.72;5.40;;;3.20;71.50;;;;;;4937496;29;20231;-82
2021/03/25 04:39:08;;;;;;;7.72;5.40;;;3.10;71.40;;;;;;4931703;29;20672;-81
2021/03/25 04:41:36;;;;;;;8.40;6.10;;;3.10;71.40;;;;;;4930586;29;20219;-82
2021/03/25 04:44:05;;;;;;;8.25;5.80;;;3.10;71.40;;;;;;4928889;29;20234;-82
2021/03/25 04:46:48;;;;;;;9.60;6.40;;;3.20;71.50;;;;;;4929807;29;20266;-80
2021/03/25 04:49:20;;;;;;;8.23;6.00;;;3.10;71.40;;;;;;4924174;29;20222;-80
2021/03/25 04:51:46;;;;;;;9.57;6.45;;;3.00;71.30;;;;;;4924265;29;20271;-80
2021/03/25 04:54:29;;;;;;;8.55;5.80;;;2.90;71.20;;;;;;4925458;29;20207;-80
2021/03/25 04:57:00;;;;;;;6.88;5.53;;;2.90;72.20;;;;;;4924958;29;20266;-80
2021/03/25 04:59:26;;;;;;;8.35;5.88;;;2.90;72.30;;;;;;4924938;29;20247;-80
2021/03/25 05:01:54;;;;;;;8.95;5.97;;;2.80;72.60;;;;;;4924495;29;20219;-79
2021/03/25 05:04:21;;;;;;;7.00;5.45;;;2.80;73.00;;;;;;4924617;29;20298;-80
2021/03/25 05:06:49;;;;;;;7.40;6.07;;;2.70;73.50;;;;;;4924917;29;20250;-81
2021/03/25 05:09:18;;;;;;;8.48;6.00;;;2.70;74.10;;;;;;4929241;29;20231;-81
2021/03/25 05:11:45;;;;;;;11.00;6.90;;;2.80;74.50;;;;;;4932265;29;20218;-80
2021/03/25 05:14:17;;;;;;;10.85;7.10;;;2.70;74.20;;;;;;4928555;29;20624;-81
2021/03/25 05:17:02;;;;;;;10.40;6.68;;;2.80;74.70;;;;;;4926417;29;20651;-81
2021/03/25 05:19:43;;;;;;;10.90;6.93;;;2.80;74.50;;;;;;4935436;29;20215;-81
2021/03/25 05:22:17;;;;;;;9.63;6.55;;;2.80;74.20;;;;;;4936893;29;20195;-83
2021/03/25 05:24:46;;;;;;;8.63;6.47;;;2.70;74.40;;;;;;4940504;29;20192;-81
2021/03/25 05:27:20;;;;;;;7.82;6.10;;;2.70;75.10;;;;;;4939131;29;20242;-80
2021/03/25 05:29:49;;;;;;;7.00;6.13;;;2.70;75.30;;;;;;4939387;29;20191;-83
2021/03/25 05:32:19;;;;;;;10.05;6.15;;;2.80;75.40;;;;;;4940886;29;20191;-83
2021/03/25 05:34:49;;;;;;;9.93;6.75;;;2.80;75.40;;;;;;4941126;29;20235;-82
2021/03/25 05:37:16;;;;;;;9.38;5.85;;;2.80;75.40;;;;;;4930808;29;20330;-81
2021/03/25 05:39:43;;;;;;;9.68;6.70;;;2.90;75.40;;;;;;4930105;29;20206;-82
2021/03/25 05:42:22;;;;;;;10.20;6.40;;;3.00;75.50;;;;;;4928516;29;20227;-81
2021/03/25 05:45:08;;;;;;;7.97;5.95;;;3.10;75.60;;;;;;4925378;29;20253;-80
2021/03/25 05:47:46;;;;;;;10.65;7.05;;;3.20;74.80;;;;;;4915177;29;20219;-81
2021/03/25 05:50:26;;;;;;;11.85;7.50;;;3.40;74.30;;;;;;4912453;29;20256;-80
2021/03/25 05:53:03;;;;;;;10.10;6.78;;;3.70;71.90;;;;;;4918991;29;20219;-79
2021/03/25 05:55:57;;;;;;;9.52;6.75;;;3.90;71.20;;;;;;4918523;29;20290;-79
2021/03/25 05:58:37;;;;;;;8.85;6.97;;;4.00;69.10;;;;;;4916119;29;20243;-79
2021/03/25 06:01:21;;;;;;;8.88;5.70;;;4.10;67.90;;;;;;4908416;29;20216;-80
2021/03/25 06:03:58;;;;;;;9.30;6.75;;;4.20;67.10;;;;;;4905334;29;20242;-81
2021/03/25 06:06:36;;;;;;;6.88;5.93;;;4.20;65.50;;;;;;4905674;29;20255;-80
2021/03/25 06:09:08;;;;;;;8.15;5.38;;;4.30;65.30;;;;;;4905245;29;20250;-80
2021/03/25 06:11:44;;;;;;;9.32;6.97;;;4.50;64.80;;;;;;4904764;29;20223;-80
2021/03/25 06:14:22;;;;;;;9.82;6.53;;;4.60;64.00;;;;;;4905012;29;20215;-80
2021/03/25 06:17:00;;;;;;;6.20;5.50;;;4.70;64.10;;;;;;4908600;29;20299;-80
2021/03/25 06:19:47;;;;;;;9.07;5.75;;;4.80;63.20;;;;;;4908891;29;20303;-81
2021/03/25 06:22:22;;;;;;;10.50;6.72;;;4.90;61.70;;;;;;4906330;29;20228;-81
2021/03/25 06:25:22;;;;;;;9.68;6.18;;;5.00;60.90;;;;;;4914874;29;20252;-80
2021/03/25 06:28:17;;;;;;;8.40;5.88;;;5.10;60.30;;;;;;4910093;29;20208;-80
2021/03/25 06:30:50;;;;;;;13.13;6.72;;;5.20;59.70;;;;;;4918220;29;20265;-80
2021/03/25 06:33:23;;;;;;;12.98;6.40;;;5.30;59.40;;;;;;4916306;29;20242;-83
2021/03/25 06:35:52;;;;;;;8.43;5.82;;;5.30;59.00;;;;;;4910207;29;20235;-81
2021/03/25 06:38:23;;;;;;;8.85;5.85;;;5.40;59.00;;;;;;4909424;29;20239;-81
2021/03/25 06:40:58;;;;;;;7.53;5.32;;;5.50;57.90;;;;;;4905494;29;20355;-81
2021/03/25 06:43:32;;;;;;;6.45;5.25;;;5.70;57.30;;;;;;4906339;29;20179;-79
2021/03/25 06:46:02;;;;;;;9.35;6.18;;;5.90;56.10;;;;;;4911408;29;20248;-82
2021/03/25 06:48:37;;;;;;;6.55;5.22;;;6.00;56.20;;;;;;4909947;29;20211;-86
2021/03/25 06:51:17;;;;;;;11.30;5.70;;;6.20;55.10;;;;;;4918327;29;20244;-83
2021/03/25 06:53:45;;;;;;;7.68;5.22;;;6.30;53.80;;;;;;4915279;29;20260;-83
2021/03/25 06:56:16;;;;;;;7.18;4.95;;;6.40;52.90;;;;;;4917605;29;20236;-85
2021/03/25 06:58:49;;;;;;;8.55;4.97;;;6.50;52.10;;;;;;4918979;29;20231;-81
2021/03/25 07:01:27;;;;;;;8.30;5.22;;;6.60;52.00;;;;;;4927288;29;20215;-83
2021/03/25 07:03:57;;;;;;;12.75;5.20;;;6.60;51.80;;;;;;4918300;29;20207;-84
2021/03/25 07:06:27;;;;;;;4.72;4.22;;;6.70;51.30;;;;;;4904967;29;20250;-83
2021/03/25 07:08:55;;;;;;;6.05;4.55;;;6.70;52.20;;;;;;4902877;29;20215;-84
2021/03/25 07:11:25;;;;;;;5.63;4.00;;;6.90;51.00;;;;;;4926059;29;20199;-84
2021/03/25 07:13:57;;;;;;;8.07;4.93;;;7.00;50.20;;;;;;4923670;29;20211;-85
2021/03/25 07:16:24;;;;;;;5.70;4.60;;;7.10;49.90;;;;;;4922000;29;20258;-84
2021/03/25 07:18:59;;;;;;;6.97;4.25;;;7.20;49.10;;;;;;4926634;29;20598;-85
2021/03/25 07:21:30;;;;;;;5.78;5.05;;;7.30;48.60;;;;;;4926813;29;20301;-83
2021/03/25 07:23:59;;;;;;;5.03;4.55;;;7.50;48.10;;;;;;4917062;29;20212;-83
2021/03/25 07:26:30;;;;;;;5.40;4.60;;;7.60;48.10;;;;;;4926708;29;20316;-83
2021/03/25 07:29:06;;;;;;;6.90;5.10;;;7.60;48.10;;;;;;4930618;29;20215;-84
2021/03/25 07:31:36;;;;;;;7.50;4.60;;;7.60;48.10;;;;;;4925102;29;20195;-83
2021/03/25 07:34:04;;;;;;;10.95;5.25;;;7.80;48.30;;;;;;4924174;29;20194;-83
2021/03/25 07:36:32;;;;;;;6.80;4.80;;;7.90;47.90;;;;;;4932495;29;20227;-84
2021/03/25 07:39:07;;;;;;;6.38;5.65;;;7.90;47.50;;;;;;4931901;29;20230;-84
2021/03/25 07:41:34;;;;;;;8.35;4.80;;;8.10;47.20;;;;;;4931372;29;20633;-83
2021/03/25 07:44:04;;;;;;;6.20;5.20;;;8.30;46.50;;;;;;4931552;29;20207;-84
2021/03/25 07:46:35;;;;;;;6.93;5.00;;;8.50;45.70;;;;;;4930997;29;20258;-85
2021/03/25 07:49:07;;;;;;;12.00;4.65;;;8.60;45.20;;;;;;4932845;29;20218;-83
2021/03/25 07:51:51;;;;;;;8.77;4.97;;;8.70;44.80;;;;;;4937309;29;20210;-83
2021/03/25 07:54:25;;;;;;;8.43;5.10;;;8.90;44.40;;;;;;4936216;29;20207;-84
2021/03/25 07:56:54;;;;;;;7.10;5.13;;;9.10;43.50;;;;;;4937319;29;20226;-82
2021/03/25 07:59:32;;;;;;;6.65;4.60;;;9.30;42.90;;;;;;4936394;29;20222;-83
2021/03/25 08:01:59;;;;;;;5.95;4.57;;;9.50;42.60;;;;;;4936816;29;20222;-83
2021/03/25 08:04:27;;;;;;;9.15;4.75;;;9.80;41.60;;;;;;4929997;29;20234;-84
2021/03/25 08:07:09;;;;;;;4.88;4.43;;;9.90;41.00;;;;;;4926899;29;20239;-84
2021/03/25 08:09:50;;;;;;;5.30;4.80;;;10.10;39.60;;;;;;4939165;29;20194;-85
2021/03/25 08:12:23;;;;;;;8.23;5.43;;;10.20;39.70;;;;;;4931596;29;20327;-86
2021/03/25 08:14:51;;;;;;;8.18;4.78;;;10.30;39.80;;;;;;4918298;29;20223;-83
2021/03/25 08:17:33;;;;;;;4.32;3.80;;;10.50;38.90;;;;;;4913627;29;20236;-84
2021/03/25 08:20:08;;;;;;;4.85;4.13;;;10.60;38.80;;;;;;4909276;29;20207;-84
2021/03/25 08:22:55;;;;;;;9.20;4.88;;;10.70;38.00;;;;;;4909984;29;20592;-86
2021/03/25 08:25:43;;;;;;;9.50;4.93;;;10.90;37.90;;;;;;4914258;29;20238;-82
2021/03/25 08:28:21;;;;;;;5.18;4.50;;;11.00;37.40;;;;;;4919009;29;20203;-81
2021/03/25 08:30:53;;;;;;;6.85;4.63;;;11.00;36.90;;;;;;4916322;29;20200;-82
2021/03/25 08:33:32;;;;;;;5.82;4.55;;;11.20;37.00;;;;;;4907557;29;20290;-82
2021/03/25 08:36:04;;;;;;;6.72;5.40;;;11.20;36.60;;;;;;4915360;29;20250;-82
2021/03/25 08:38:58;;;;;;;6.50;4.55;;;11.40;35.80;;;;;;4916215;29;20228;-83
2021/03/25 08:41:31;;;;;;;5.07;4.53;;;11.50;35.90;;;;;;4917655;29;20204;-82
2021/03/25 08:44:03;;;;;;;6.60;4.47;;;11.60;35.90;;;;;;4916021;29;20223;-83
2021/03/25 08:46:36;;;;;;;7.18;4.80;;;11.70;35.50;;;;;;4909104;29;20224;-81
2021/03/25 08:49:10;;;;;;;6.88;4.22;;;12.00;34.80;;;;;;4908938;29;20239;-80
2021/03/25 08:51:39;;;;;;;10.50;4.60;;;12.30;34.50;;;;;;4910953;29;20288;-82
2021/03/25 08:54:14;;;;;;;6.05;4.68;;;12.50;33.90;;;;;;4905354;29;20219;-82
2021/03/25 08:56:45;;;;;;;6.93;4.70;;;12.70;32.00;;;;;;4906260;29;20239;-82
2021/03/25 08:59:24;;;;;;;4.65;3.67;;;12.70;32.00;;;;;;4907011;29;20236;-83
2021/03/25 09:01:54;;;;;;;7.78;4.40;;;12.60;31.90;;;;;;4913225;29;20219;-84
2021/03/25 09:04:24;;;;;;;7.70;5.18;;;12.60;31.90;;;;;;4920866;29;20192;-84
2021/03/25 09:06:52;;;;;;;5.32;4.80;;;12.80;32.10;;;;;;4921829;29;20239;-83
2021/03/25 09:09:41;;;;;;;6.15;4.30;;;12.90;31.40;;;;;;4920546;29;20196;-83
2021/03/25 09:12:14;;;;;;;7.95;5.05;;;13.10;31.00;;;;;;4914430;29;20226;-82
2021/03/25 09:14:41;;;;;;;5.90;4.10;;;13.30;31.90;;;;;;4919062;29;20203;-83
2021/03/25 09:17:12;;;;;;;8.18;4.80;;;13.60;30.80;;;;;;4911419;29;20244;-83
2021/03/25 09:19:45;;;;;;;7.28;4.30;;;13.70;30.40;;;;;;4906069;29;20291;-83
2021/03/25 09:22:52;;;;;;;7.03;4.90;;;13.70;30.60;;;;;;4906164;29;20220;-83
2021/03/25 09:25:39;;;;;;;6.30;4.47;;;13.90;30.20;;;;;;4891067;29;20287;-83
2021/03/25 09:28:19;;;;;;;8.57;4.13;;;14.10;29.80;;;;;;4915293;29;20208;-84
2021/03/25 09:31:10;;;;;;;6.85;4.60;;;14.20;29.70;;;;;;4931716;29;20234;-84
2021/03/25 09:33:52;;;;;;;12.27;5.53;;;14.30;29.60;;;;;;4931729;29;20209;-83
2021/03/25 09:36:43;;;;;;;7.55;4.93;;;14.40;29.50;;;;;;4931389;29;20718;-84
2021/03/25 09:39:25;;;;;;;7.20;5.30;;;14.60;29.00;;;;;;4919979;29;20239;-84
2021/03/25 09:41:54;;;;;;;6.60;5.23;;;14.70;28.70;;;;;;4928652;29;20233;-84
2021/03/25 09:44:34;;;;;;;5.93;4.40;;;14.80;28.80;;;;;;4931362;29;20418;-83
2021/03/25 09:47:30;;;;;;;7.70;4.70;;;15.00;28.20;;;;;;4928649;29;20458;-85
2021/03/25 09:50:13;;;;;;;10.57;5.00;;;15.20;28.00;;;;;;4916109;29;20235;-83
2021/03/25 09:52:43;;;;;;;8.70;5.70;;;15.30;27.50;;;;;;4912616;29;20502;-85
2021/03/25 09:55:22;;;;;;;8.67;5.63;;;15.50;27.10;;;;;;4920530;29;20472;-85
2021/03/25 09:57:49;;;;;;;12.60;7.60;;;15.60;26.00;;;;;;4921711;29;20542;-83
2021/03/25 10:00:56;;;;;;;13.70;8.47;;;15.60;25.70;;;;;;4921330;29;20464;-85
2021/03/25 10:04:03;;;;;;;16.47;8.57;;;15.60;25.70;;;;;;4920940;29;20440;-83
2021/03/25 10:06:56;;;;;;;14.23;8.60;;;15.60;25.70;;;;;;4915088;29;20491;-83
2021/03/25 10:09:57;;;;;;;14.83;8.87;;;15.60;26.20;;;;;;4916006;29;20427;-83
2021/03/25 10:12:47;;;;;;;15.73;8.23;;;15.80;25.90;;;;;;4915761;29;20534;-84
2021/03/25 10:15:46;;;;;;;12.17;8.60;;;15.70;25.80;;;;;;4918535;29;20439;-84
2021/03/25 10:18:57;;;;;;;13.07;8.40;;;15.80;26.50;;;;;;4919047;29;20468;-85
2021/03/25 10:22:01;;;;;;;12.13;8.40;;;16.00;26.00;;;;;;4920325;29;20486;-85
2021/03/25 10:24:40;;;;;;;16.57;8.07;;;15.90;26.00;;;;;;4919309;29;20443;-82
2021/03/25 10:27:30;;;;;;;11.97;7.63;;;16.00;26.00;;;;;;4919239;29;20468;-82
2021/03/25 10:29:56;;;;;;;14.60;8.60;;;16.00;26.00;;;;;;4918214;29;20485;-82
2021/03/25 10:32:28;;;;;;;13.20;8.60;;;16.00;26.00;;;;;;4917950;29;20435;-81
2021/03/25 10:34:59;;;;;;;16.33;8.53;;;16.20;26.10;;;;;;4918335;29;20434;-79
2021/03/25 10:37:31;;;;;;;14.93;8.70;;;16.20;26.10;;;;;;4917776;29;20510;-82
2021/03/25 10:40:16;;;;;;;17.83;9.57;;;16.30;26.20;;;;;;4919336;29;20464;-82
2021/03/25 10:42:44;;;;;;;22.23;10.10;;;16.50;26.40;;;;;;4918276;29;20398;-82
2021/03/25 10:45:22;;;;;;;18.47;10.77;;;16.40;26.30;;;;;;4918979;29;20464;-82
2021/03/25 10:47:55;;;;;;;20.27;11.20;;;16.30;26.20;;;;;;4916898;29;20438;-82
2021/03/25 10:50:29;;;;;;;23.00;12.70;;;16.30;26.20;;;;;;4918261;29;20415;-83
2021/03/25 10:53:00;;;;;;;19.40;11.63;;;16.30;26.30;;;;;;4918861;29;20480;-83
2021/03/25 10:55:33;;;;;;;18.20;11.03;;;16.30;26.20;;;;;;4910831;29;20545;-82
2021/03/25 10:58:03;;;;;;;20.00;10.83;;;16.40;26.30;;;;;;4912364;29;20503;-83
2021/03/25 11:00:32;;;;;;;16.40;11.00;;;16.40;26.90;;;;;;4914065;29;20436;-82
2021/03/25 11:03:01;;;;;;;19.83;11.77;;;16.40;26.30;;;;;;4918199;29;20468;-83
2021/03/25 11:05:30;;;;;;;17.70;11.20;;;16.30;26.20;;;;;;4919405;29;20491;-86
2021/03/25 11:07:59;;;;;;;19.40;11.20;;;16.40;26.30;;;;;;4920299;29;20415;-83
2021/03/25 11:10:28;;;;;;;17.53;11.10;;;16.40;26.30;;;;;;4920182;29;20472;-82
2021/03/25 11:12:58;;;;;;;19.73;11.50;;;16.60;26.40;;;;;;4919876;29;20456;-80
2021/03/25 11:15:31;;;;;;;17.87;10.47;;;16.70;26.50;;;;;;4915811;29;20536;-82
2021/03/25 11:18:01;;;;;;;15.70;10.10;;;16.70;26.50;;;;;;4916216;29;20439;-79
2021/03/25 11:20:29;;;;;;;16.40;11.20;;;16.70;26.50;;;;;;4911205;29;20448;-81
2021/03/25 11:22:57;;;;;;;17.07;11.73;;;16.70;26.50;;;;;;4911397;29;20435;-81
2021/03/25 11:25:27;;;;;;;15.73;10.10;;;16.70;26.50;;;;;;4909119;29;20470;-81
2021/03/25 11:28:02;;;;;;;14.60;10.43;;;16.70;26.50;;;;;;4906475;29;20430;-82
2021/03/25 11:30:35;;;;;;;17.30;11.67;;;16.70;26.50;;;;;;4906437;29;20444;-80
2021/03/25 11:33:19;;;;;;;18.33;10.60;;;16.80;25.90;;;;;;4903627;29;20487;-80
2021/03/25 11:35:47;;;;;;;13.23;9.13;;;16.80;26.00;;;;;;4904659;29;20559;-83
2021/03/25 11:38:27;;;;;;;15.80;10.17;;;17.10;25.60;;;;;;4905039;29;20497;-81
2021/03/25 11:40:56;;;;;;;24.33;11.10;;;17.30;25.50;;;;;;4907036;29;20470;-81
2021/03/25 11:43:25;;;;;;;17.80;10.53;;;17.40;25.40;;;;;;4912325;29;20446;-81
2021/03/25 11:45:53;;;;;;;13.47;10.40;;;17.40;25.30;;;;;;4918309;29;20504;-81
2021/03/25 11:48:24;;;;;;;18.07;9.90;;;17.20;25.50;;;;;;4918351;29;20427;-81
2021/03/25 11:50:51;;;;;;;13.40;9.40;;;17.20;25.20;;;;;;4912756;29;20443;-82
2021/03/25 11:53:34;;;;;;;13.00;8.63;;;17.50;25.10;;;;;;4931236;29;20516;-83
2021/03/25 11:56:01;;;;;;;13.50;9.30;;;17.60;24.50;;;;;;4934547;29;20434;-83
2021/03/25 11:58:27;;;;;;;22.83;10.27;;;17.60;24.30;;;;;;4924037;29;20490;-83
2021/03/25 12:01:07;;;;;;;16.33;10.00;;;17.70;24.30;;;;;;4923549;29;20434;-84
2021/03/25 12:03:45;;;;;;;13.53;10.33;;;17.60;24.10;;;;;;4922682;29;20430;-82
2021/03/25 12:06:19;;;;;;;14.70;9.67;;;17.50;24.30;;;;;;4923087;29;20453;-82
2021/03/25 12:08:46;;;;;;;13.70;9.63;;;17.50;24.90;;;;;;4923560;29;20579;-83
2021/03/25 12:11:13;;;;;;;15.30;10.57;;;17.60;25.10;;;;;;4921148;29;20487;-83
2021/03/25 12:13:40;;;;;;;15.80;10.77;;;17.60;25.00;;;;;;4920159;29;20819;-82
2021/03/25 12:16:10;;;;;;;16.50;11.47;;;17.50;25.30;;;;;;4923522;29;20561;-83
2021/03/25 12:18:39;;;;;;;16.43;11.50;;;17.40;25.60;;;;;;4922818;29;20479;-82
2021/03/25 12:21:10;;;;;;;20.00;11.83;;;17.40;25.90;;;;;;4939434;29;20439;-90
2021/03/25 12:23:40;;;;;;;17.60;12.00;;;17.50;25.80;;;;;;4938442;29;20451;-88
2021/03/25 12:26:10;;;;;;;22.77;12.20;;;17.60;25.30;;;;;;4925956;29;20446;-84
2021/03/25 12:28:37;;;;;;;16.10;11.50;;;17.70;25.40;;;;;;4923165;29;20438;-85
2021/03/25 12:31:04;;;;;;;17.60;11.83;;;17.80;25.00;;;;;;4922554;29;20465;-86
2021/03/25 12:33:33;;;;;;;16.17;11.47;;;18.00;25.10;;;;;;4922443;29;20438;-83
2021/03/25 12:36:01;;;;;;;16.70;11.23;;;18.10;24.70;;;;;;4926556;29;20515;-85
2021/03/25 12:38:31;;;;;;;18.80;12.73;;;18.00;25.10;;;;;;4936649;29;20493;-83
2021/03/25 12:41:00;;;;;;;20.57;12.93;;;18.00;24.80;;;;;;4935565;29;20519;-85
2021/03/25 12:43:30;;;;;;;19.57;12.47;;;18.00;25.10;;;;;;4936566;29;20482;-85
2021/03/25 12:46:00;;;;;;;20.80;12.33;;;18.20;25.40;;;;;;4938009;29;20507;-84
2021/03/25 12:48:42;;;;;;;21.23;13.20;;;18.10;25.40;;;;;;4938457;29;20465;-85
2021/03/25 12:51:14;;;;;;;17.77;13.07;;;18.20;24.80;;;;;;4937551;29;20519;-85
2021/03/25 12:53:44;;;;;;;23.33;13.27;;;18.10;24.90;;;;;;4936815;29;20494;-87
2021/03/25 12:56:18;;;;;;;17.93;12.63;;;18.20;25.20;;;;;;4936683;29;20461;-85
2021/03/25 12:58:46;;;;;;;18.73;12.27;;;17.90;25.30;;;;;;4937142;29;20475;-87
2021/03/25 13:01:19;;;;;;;19.77;11.97;;;17.70;25.20;;;;;;4936973;29;20430;-87
2021/03/25 13:06:32;;;;;;;19.07;12.93;;;17.80;25.60;;;;;;4938810;29;20571;-86
2021/03/25 13:09:00;;;;;;;16.83;11.83;;;18.00;25.10;;;;;;4938608;29;20443;-87
2021/03/25 13:11:34;;;;;;;23.03;13.10;;;18.10;25.00;;;;;;4938149;29;20418;-85
2021/03/25 13:14:03;;;;;;;14.07;11.57;;;18.20;24.00;;;;;;4937624;29;20481;-86
2021/03/25 13:16:34;;;;;;;14.00;11.00;;;18.20;24.00;;;;;;4937799;29;20584;-88
2021/03/25 13:19:02;;;;;;;17.73;10.40;;;18.20;22.90;;;;;;4936903;29;20477;-87
2021/03/25 13:21:31;;;;;;;15.20;10.53;;;18.30;22.50;;;;;;4937413;29;20462;-88